Time;durP1;ratioP1;P1;durP2;ratioP2;P2;SDS_P1;SDS_P2;PMS_P1;PMS_P2;Temp;Humidity;BMP_temperature;BMP_pressure;BME280_temperature;BME280_humidity;BME280_pressure;Samples;Min_cycle;Max_cycle;Signal;HPM_P1;HPM_P2
2023/07/12 00:00:49;;;;;;;3.40;1.35;;;;;;;21.80;80.48;96403.53;6275694;22;20058;-76
2023/07/12 00:03:18;;;;;;;2.17;1.10;;;;;;;21.79;76.64;96407.22;6276297;22;20420;-76
2023/07/12 00:05:47;;;;;;;1.27;1.08;;;;;;;21.81;76.00;96410.41;6275800;22;20504;-76
2023/07/12 00:08:19;;;;;;;2.05;1.20;;;;;;;21.88;78.72;96415.50;6276000;22;20020;-76
2023/07/12 00:10:48;;;;;;;1.52;0.95;;;;;;;21.94;81.64;96396.66;6275888;22;20023;-76
2023/07/12 00:13:17;;;;;;;1.50;1.20;;;;;;;22.00;82.49;96402.81;6276129;22;20073;-75
2023/07/12 00:15:47;;;;;;;3.80;2.00;;;;;;;22.15;90.37;96437.41;6275880;22;20019;-75
2023/07/12 00:18:17;;;;;;;1.88;0.70;;;;;;;22.15;78.96;96425.97;6276318;22;20449;-76
2023/07/12 00:20:46;;;;;;;1.00;0.90;;;;;;;22.09;75.95;96417.19;6276226;22;20118;-76
2023/07/12 00:23:15;;;;;;;0.82;0.80;;;;;;;21.98;75.21;96416.34;6275786;22;20023;-76
2023/07/12 00:25:44;;;;;;;3.17;0.90;;;;;;;21.89;73.35;96428.53;6276000;22;20015;-76
2023/07/12 00:28:21;;;;;;;1.88;0.98;;;;;;;21.72;74.87;96463.19;6275722;22;20016;-76
2023/07/12 00:30:51;;;;;;;1.27;0.90;;;;;;;21.62;75.52;96512.75;6275085;22;20519;-75
2023/07/12 00:33:19;;;;;;;3.25;1.05;;;;;;;21.67;76.55;96542.00;6275347;22;20047;-76
2023/07/12 00:35:49;;;;;;;2.95;1.08;;;;;;;21.70;74.87;96539.63;6275439;22;20020;-75
2023/07/12 00:38:18;;;;;;;1.98;1.17;;;;;;;21.77;78.76;96526.94;6275671;22;20368;-76
2023/07/12 00:41:03;;;;;;;2.72;1.17;;;;;;;21.78;74.74;96512.63;6275289;22;20074;-76
2023/07/12 00:43:37;;;;;;;4.88;1.00;;;;;;;21.83;81.04;96509.19;6275732;22;20102;-76
2023/07/12 00:46:14;;;;;;;2.92;1.33;;;;;;;21.88;88.21;96505.78;6275557;22;20357;-76
2023/07/12 00:48:45;;;;;;;2.45;0.93;;;;;;;21.85;82.61;96501.00;6275635;22;20330;-75
2023/07/12 00:51:31;;;;;;;3.30;1.20;;;;;;;21.76;77.09;96480.22;6275166;22;20026;-76
2023/07/12 00:53:59;;;;;;;2.00;0.90;;;;;;;21.73;77.31;96461.34;6275558;22;20027;-75
2023/07/12 00:56:27;;;;;;;1.73;0.90;;;;;;;21.70;76.19;96470.63;6275860;22;20095;-75
2023/07/12 00:58:59;;;;;;;2.13;1.20;;;;;;;21.64;75.63;96473.50;6275614;22;20465;-76
2023/07/12 01:01:28;;;;;;;1.67;1.10;;;;;;;21.62;75.03;96471.09;6275321;22;20073;-76
2023/07/12 01:03:56;;;;;;;1.58;1.02;;;;;;;21.57;73.81;96441.88;6275451;22;20357;-76
2023/07/12 01:06:25;;;;;;;2.38;1.05;;;;;;;21.48;73.57;96432.78;6275149;22;20026;-76
2023/07/12 01:08:53;;;;;;;2.92;1.10;;;;;;;21.34;73.61;96411.97;6275472;22;20393;-76
2023/07/12 01:11:21;;;;;;;2.33;1.38;;;;;;;21.33;77.13;96425.47;6274891;22;20481;-76
2023/07/12 01:13:51;;;;;;;6.00;1.42;;;;;;;21.22;74.74;96413.19;6275742;22;20102;-75
2023/07/12 01:16:22;;;;;;;1.70;1.10;;;;;;;21.09;74.93;96396.66;6280099;22;20020;-75
2023/07/12 01:18:51;;;;;;;5.60;1.47;;;;;;;20.96;75.38;96379.31;6285282;22;20054;-76
2023/07/12 01:21:24;;;;;;;4.18;2.22;;;;;;;20.85;77.10;96377.63;6274985;22;20026;-75
2023/07/12 01:23:52;;;;;;;1.95;1.30;;;;;;;20.72;78.03;96388.66;6275407;22;20019;-75
2023/07/12 01:26:26;;;;;;;4.20;1.40;;;;;;;20.77;80.48;96401.94;6276080;22;20016;-75
2023/07/12 01:28:56;;;;;;;2.53;1.02;;;;;;;20.78;78.39;96391.09;6276067;22;20071;-75
2023/07/12 01:31:25;;;;;;;2.38;1.20;;;;;;;20.77;77.64;96394.81;6275024;22;20023;-75
2023/07/12 01:33:54;;;;;;;2.53;1.20;;;;;;;20.75;77.67;96391.63;6274551;22;20019;-75
2023/07/12 01:36:24;;;;;;;3.38;1.33;;;;;;;20.76;78.28;96393.19;6275350;22;20046;-75
2023/07/12 01:38:54;;;;;;;2.63;1.45;;;;;;;20.79;78.28;96405.16;6277077;22;20047;-75
2023/07/12 01:41:21;;;;;;;4.22;1.83;;;;;;;20.86;79.60;96407.59;6276961;22;20024;-76
2023/07/12 01:43:49;;;;;;;4.10;1.50;;;;;;;20.87;78.41;96391.44;6277340;22;20023;-75
2023/07/12 02:48:24;;;;;;;6.05;1.80;;;;;;;20.64;78.52;96259.25;6242926;22;20039;-75
2023/07/12 02:50:51;;;;;;;5.75;3.08;;;;;;;20.73;85.26;96268.34;6245301;23;20024;-76
2023/07/12 02:53:20;;;;;;;5.78;2.08;;;;;;;20.81;81.57;96275.00;6246194;23;20470;-76
2023/07/12 02:55:48;;;;;;;2.28;1.90;;;;;;;20.83;79.98;96267.59;6245807;23;20017;-76
2023/07/12 02:58:16;;;;;;;2.92;2.17;;;;;;;20.83;79.04;96265.75;6275340;22;20035;-77
2023/07/12 03:41:15;;;;;;;5.68;2.97;;;;;;;21.68;88.73;96294.09;6215989;22;20016;-74
2023/07/12 03:43:46;;;;;;;;;;;;;;;21.70;88.58;96282.13;6214913;23;20025;-75
2023/07/12 03:46:14;;;;;;;3.50;2.38;;;;;;;21.59;82.31;96275.19;6214615;23;19923;-75
2023/07/12 03:48:42;;;;;;;6.70;2.38;;;;;;;21.47;78.34;96277.25;6214428;23;20075;-75
2023/07/12 03:51:12;;;;;;;6.35;2.78;;;;;;;21.35;76.56;96280.91;6214834;23;20029;-75
2023/07/12 03:53:39;;;;;;;5.78;2.65;;;;;;;21.31;76.54;96289.63;6244824;23;20031;-74
2023/07/12 03:56:07;;;;;;;4.10;2.10;;;;;;;21.23;75.56;96298.91;6244267;23;20129;-75
2023/07/12 03:58:38;;;;;;;4.43;2.72;;;;;;;21.18;75.32;96291.69;6245132;23;20079;-75
2023/07/12 04:01:09;;;;;;;5.10;2.40;;;;;;;21.13;74.70;96306.78;6244496;23;20022;-75
2023/07/12 04:03:37;;;;;;;4.20;2.10;;;;;;;21.11;74.79;96314.19;6244505;23;20229;-75
2023/07/12 04:06:07;;;;;;;4.60;3.35;;;;;;;21.07;74.74;96302.50;6248967;23;20020;-75
2023/07/12 04:08:34;;;;;;;9.25;2.97;;;;;;;21.03;75.10;96312.81;6252272;23;20028;-74
2023/07/12 04:11:03;;;;;;;11.80;3.20;;;;;;;21.01;75.06;96317.56;6244035;23;20012;-74
2023/07/12 04:13:31;;;;;;;6.30;3.58;;;;;;;21.09;83.79;96327.69;6244167;23;20028;-74
2023/07/12 04:16:02;;;;;;;5.20;3.05;;;;;;;21.16;80.89;96320.31;6245196;23;20085;-74
2023/07/12 04:18:30;;;;;;;10.00;3.78;;;;;;;21.13;75.54;96320.84;6244587;23;20066;-75
2023/07/12 04:21:05;;;;;;;6.30;2.97;;;;;;;21.17;78.55;96315.84;6249432;23;20016;-78
2023/07/12 04:36:43;;;;;;;7.78;4.10;;;;;;;21.90;93.32;96309.81;6234172;22;20016;-79
2023/07/12 04:42:20;;;;;;;9.70;4.10;;;;;;;21.88;89.57;96317.25;6258648;22;20155;-78
2023/07/12 04:51:46;;;;;;;7.03;3.40;;;;;;;21.65;76.01;96310.53;6275800;22;20062;-77
2023/07/12 04:54:13;;;;;;;5.30;3.22;;;;;;;21.65;75.01;96313.97;6279628;22;20024;-76
2023/07/12 04:56:41;;;;;;;5.25;2.78;;;;;;;21.63;74.33;96318.75;6298999;22;20020;-77
2023/07/12 04:59:09;;;;;;;5.25;3.28;;;;;;;21.68;78.29;96316.09;6289676;22;20395;-77
2023/07/12 05:01:36;;;;;;;6.13;2.67;;;;;;;21.67;75.15;96314.53;6276381;22;20019;-77
2023/07/12 05:04:04;;;;;;;5.43;2.67;;;;;;;21.69;79.70;96315.06;6275624;22;20050;-77
2023/07/12 05:06:32;;;;;;;4.72;2.65;;;;;;;21.66;75.15;96307.59;6274851;22;20020;-76
2023/07/12 05:09:01;;;;;;;4.55;2.58;;;;;;;21.56;73.94;96316.34;6276947;22;20027;-77
2023/07/12 05:11:29;;;;;;;7.85;2.70;;;;;;;21.52;73.51;96327.72;6279444;22;20023;-77
2023/07/12 05:13:56;;;;;;;7.03;2.78;;;;;;;21.48;73.25;96331.94;6280417;22;20019;-77
2023/07/12 05:16:24;;;;;;;5.35;2.90;;;;;;;21.44;73.20;96336.16;6279129;22;20019;-76
2023/07/12 05:18:52;;;;;;;4.35;2.75;;;;;;;21.42;73.30;96330.31;6277738;22;20465;-76
2023/07/12 05:21:23;;;;;;;5.07;3.33;;;;;;;21.53;80.89;96339.94;6277187;22;20541;-76
2023/07/12 05:23:51;;;;;;;6.60;2.80;;;;;;;21.63;76.27;96334.69;6277640;22;20024;-76
2023/07/12 05:26:20;;;;;;;3.83;2.47;;;;;;;21.65;73.22;96337.09;6277592;22;20078;-77
2023/07/12 05:28:48;;;;;;;4.68;3.28;;;;;;;21.75;79.55;96339.75;6277387;22;20024;-76
2023/07/12 05:31:16;;;;;;;6.97;3.55;;;;;;;21.86;83.74;96337.94;6277325;22;20023;-76
2023/07/12 05:33:47;;;;;;;5.95;3.38;;;;;;;21.88;75.43;96359.72;6277064;22;20491;-76
2023/07/12 05:36:15;;;;;;;6.38;3.38;;;;;;;21.87;73.56;96358.16;6277491;22;20089;-76
2023/07/12 05:38:43;;;;;;;5.82;3.33;;;;;;;21.96;78.25;96353.94;6276933;22;20460;-76
2023/07/12 05:41:10;;;;;;;6.45;3.70;;;;;;;21.98;74.30;96354.47;6276560;22;20538;-77
2023/07/12 05:43:40;;;;;;;6.93;3.60;;;;;;;21.98;72.86;96365.09;6276869;22;20492;-76
2023/07/12 05:46:08;;;;;;;8.73;3.90;;;;;;;21.99;72.71;96359.50;6277237;22;20069;-75
2023/07/12 05:48:36;;;;;;;5.78;3.30;;;;;;;22.04;73.82;96360.56;6277243;22;20020;-76
2023/07/12 05:51:04;;;;;;;4.13;3.30;;;;;;;22.07;72.94;96365.38;6276910;22;20077;-77
2023/07/12 05:53:31;;;;;;;6.72;3.58;;;;;;;22.08;72.17;96367.75;6277300;22;20095;-76
2023/07/12 05:56:01;;;;;;;5.15;3.30;;;;;;;22.10;71.24;96376.28;6276767;22;20227;-76
2023/07/12 05:58:29;;;;;;;6.82;3.85;;;;;;;22.19;76.89;96380.03;6277089;22;20085;-77
2023/07/12 06:01:00;;;;;;;5.90;3.25;;;;;;;22.22;71.76;96378.75;6276383;22;20469;-77
2023/07/12 06:03:28;;;;;;;4.53;2.92;;;;;;;22.29;74.70;96373.97;6277013;22;20020;-76
2023/07/12 06:05:57;;;;;;;5.57;3.38;;;;;;;22.42;80.38;96376.13;6276676;22;20102;-76
2023/07/12 06:08:26;;;;;;;4.45;2.80;;;;;;;22.55;83.19;96376.69;6276994;22;20338;-76
2023/07/12 06:10:54;;;;;;;7.43;3.58;;;;;;;22.64;84.11;96375.09;6276854;22;20019;-76
2023/07/12 06:13:22;;;;;;;3.28;2.47;;;;;;;22.66;76.41;96367.66;6276483;22;20023;-76
2023/07/12 06:15:49;;;;;;;4.25;3.22;;;;;;;22.74;80.51;96369.81;6277375;22;20023;-76
2023/07/12 06:18:19;;;;;;;4.63;2.60;;;;;;;22.85;84.68;96375.94;6278264;22;20016;-76
2023/07/12 06:20:54;;;;;;;3.78;2.35;;;;;;;22.84;78.98;96375.13;6292765;22;20023;-76
2023/07/12 06:23:22;;;;;;;4.13;2.58;;;;;;;22.89;79.97;96370.88;6276451;22;20024;-76
2023/07/12 06:25:49;;;;;;;5.97;2.75;;;;;;;22.99;80.94;96384.16;6276497;22;20050;-76
2023/07/12 06:28:17;;;;;;;3.17;2.38;;;;;;;23.01;75.33;96374.09;6276897;22;20077;-76
2023/07/12 06:30:45;;;;;;;6.85;2.78;;;;;;;23.10;77.77;96380.47;6276553;22;20023;-76
2023/07/12 06:33:12;;;;;;;4.22;2.63;;;;;;;23.14;76.18;96380.75;6276735;22;20130;-76
2023/07/12 06:35:41;;;;;;;3.13;2.15;;;;;;;23.21;77.66;96373.28;6276612;22;20028;-77
2023/07/12 06:38:09;;;;;;;4.70;3.20;;;;;;;23.29;79.61;96375.41;6276837;22;20026;-77
2023/07/12 06:40:38;;;;;;;8.65;2.67;;;;;;;23.31;75.04;96389.25;6276604;22;20023;-76
2023/07/12 06:43:06;;;;;;;11.75;2.85;;;;;;;23.34;73.84;96383.38;6276752;22;20077;-76
2023/07/12 06:45:33;;;;;;;5.35;2.58;;;;;;;23.38;71.84;96384.44;6276297;22;20023;-77
2023/07/12 06:48:01;;;;;;;5.10;2.60;;;;;;;23.43;74.07;96381.75;6277155;22;20453;-76
2023/07/12 06:50:29;;;;;;;6.35;2.78;;;;;;;23.50;72.93;96389.47;6276369;22;20400;-76
2023/07/12 06:52:58;;;;;;;5.20;2.70;;;;;;;23.58;72.85;96401.44;6276112;22;20534;-77
2023/07/12 06:55:25;;;;;;;6.70;2.85;;;;;;;23.62;69.29;96399.84;6276596;22;20322;-76
2023/07/12 06:57:53;;;;;;;3.45;2.72;;;;;;;23.69;70.29;96392.34;6276125;22;20016;-76
2023/07/12 07:00:20;;;;;;;6.20;2.70;;;;;;;23.80;73.25;96396.59;6275718;22;20050;-77
2023/07/12 07:02:48;;;;;;;3.75;2.78;;;;;;;23.88;72.69;96399.78;6276360;22;20023;-76
2023/07/12 07:05:16;;;;;;;5.45;2.78;;;;;;;23.92;71.26;96404.31;6276467;22;20417;-77
2023/07/12 07:07:43;;;;;;;7.82;3.42;;;;;;;24.00;73.94;96416.25;6275901;22;20473;-76
2023/07/12 07:10:12;;;;;;;6.50;2.80;;;;;;;24.06;72.03;96417.84;6275982;22;20047;-76
2023/07/12 07:12:40;;;;;;;6.38;3.42;;;;;;;24.12;72.59;96429.25;6275880;22;20027;-76
2023/07/12 07:15:08;;;;;;;5.95;3.47;;;;;;;24.14;71.59;96427.94;6276188;22;20081;-77
2023/07/12 07:17:36;;;;;;;6.93;4.07;;;;;;;24.18;72.11;96434.31;6276312;22;20069;-76
2023/07/12 07:20:04;;;;;;;4.68;3.08;;;;;;;24.19;71.58;96435.91;6276166;22;20465;-76
2023/07/12 07:22:32;;;;;;;8.55;3.38;;;;;;;24.21;72.68;96440.97;6276250;22;20028;-76
2023/07/12 07:24:59;;;;;;;7.35;3.33;;;;;;;24.24;68.99;96445.75;6276166;22;20027;-77
2023/07/12 07:27:41;;;;;;;9.30;3.38;;;;;;;24.27;70.25;96447.88;6276333;22;20023;-76
2023/07/12 07:30:09;;;;;;;6.10;3.10;;;;;;;24.27;66.74;96450.56;6275920;22;20023;-77
2023/07/12 07:32:37;;;;;;;11.00;3.63;;;;;;;24.32;69.83;96457.72;6275623;22;20536;-77
2023/07/12 07:35:05;;;;;;;7.13;3.72;;;;;;;24.34;69.28;96459.03;6275424;22;20023;-77
2023/07/12 07:37:33;;;;;;;6.93;3.00;;;;;;;24.36;70.54;96456.09;6275618;22;20024;-77
2023/07/12 07:40:00;;;;;;;9.23;3.38;;;;;;;24.42;71.00;96445.16;6297476;22;20024;-77
2023/07/12 07:42:28;;;;;;;7.97;3.72;;;;;;;24.45;68.98;96443.81;6297699;22;20023;-76
2023/07/12 07:44:57;;;;;;;7.43;3.47;;;;;;;24.51;69.12;96448.06;6277977;22;20046;-76
2023/07/12 07:47:25;;;;;;;5.88;3.17;;;;;;;24.56;70.45;96445.38;6276726;22;20542;-77
2023/07/12 07:49:52;;;;;;;3.72;3.33;;;;;;;24.61;69.60;96448.00;6276091;22;20020;-77
2023/07/12 07:52:20;;;;;;;7.05;3.10;;;;;;;24.65;66.39;96451.72;6276172;22;20032;-77
2023/07/12 07:54:47;;;;;;;4.75;3.30;;;;;;;24.72;64.83;96453.28;6276273;22;20526;-76
2023/07/12 07:57:15;;;;;;;4.85;3.40;;;;;;;24.78;63.89;96455.63;6276403;22;20023;-77
2023/07/12 07:59:42;;;;;;;6.40;3.63;;;;;;;24.83;61.65;96454.81;6275854;22;20062;-76
2023/07/12 08:02:15;;;;;;;6.28;3.47;;;;;;;24.91;64.65;96448.91;6275757;22;20469;-77
2023/07/12 08:04:42;;;;;;;7.70;3.83;;;;;;;24.98;64.52;96452.03;6276257;22;20030;-76
2023/07/12 08:07:11;;;;;;;6.95;3.72;;;;;;;25.06;64.30;96456.00;6276277;22;20078;-76
2023/07/12 08:09:38;;;;;;;6.93;3.60;;;;;;;25.13;64.49;96451.13;6275698;22;20379;-77
2023/07/12 08:12:08;;;;;;;6.78;2.80;;;;;;;25.18;60.39;96452.97;6275944;22;20020;-77
2023/07/12 08:14:35;;;;;;;5.70;3.38;;;;;;;25.24;63.76;96438.53;6275677;22;20019;-77
2023/07/12 08:17:03;;;;;;;5.60;3.00;;;;;;;25.34;62.37;96443.00;6276096;22;20334;-78
2023/07/12 08:19:32;;;;;;;5.18;2.90;;;;;;;25.42;59.16;96447.72;6275862;22;20137;-76
2023/07/12 08:21:59;;;;;;;5.35;3.22;;;;;;;25.51;60.06;96447.91;6275755;22;20457;-77
2023/07/12 08:24:27;;;;;;;5.30;3.08;;;;;;;25.58;57.83;96443.84;6275841;22;20020;-76
2023/07/12 08:26:56;;;;;;;5.95;3.28;;;;;;;25.67;62.31;96441.34;6275639;22;20026;-77
2023/07/12 08:29:35;;;;;;;7.78;2.85;;;;;;;25.72;60.28;96452.00;6275668;22;20020;-77
2023/07/12 08:32:02;;;;;;;7.63;2.72;;;;;;;25.75;55.84;96447.97;6276386;22;20024;-77
2023/07/12 08:34:36;;;;;;;3.80;2.45;;;;;;;25.79;55.92;96457.00;6278800;22;20094;-77
2023/07/12 08:37:04;;;;;;;6.05;2.60;;;;;;;25.80;54.69;96454.06;6276349;22;20050;-79
2023/07/12 08:39:32;;;;;;;7.53;2.72;;;;;;;25.82;54.03;96454.56;6276039;22;20465;-77
2023/07/12 08:42:00;;;;;;;3.85;2.58;;;;;;;25.84;53.08;96456.94;6275436;22;20090;-79
2023/07/12 08:44:32;;;;;;;4.35;3.08;;;;;;;25.88;56.95;96452.66;6275822;22;20070;-79
2023/07/12 08:47:00;;;;;;;4.35;2.50;;;;;;;25.94;57.64;96456.09;6275920;22;20403;-77
2023/07/12 08:49:29;;;;;;;6.53;2.80;;;;;;;25.96;54.17;96452.03;6276073;22;20020;-77
2023/07/12 08:52:01;;;;;;;5.70;2.92;;;;;;;26.01;55.00;96459.22;6275203;22;20077;-77
2023/07/12 08:54:33;;;;;;;4.88;2.90;;;;;;;26.05;54.48;96457.56;6275498;22;20483;-77
2023/07/12 08:57:19;;;;;;;5.00;3.08;;;;;;;26.09;55.05;96458.59;6276302;22;20050;-78
2023/07/12 09:00:01;;;;;;;6.30;3.10;;;;;;;26.11;54.61;96456.44;6276144;22;20441;-78
2023/07/12 09:02:29;;;;;;;4.97;2.88;;;;;;;26.11;55.66;96456.44;6276281;22;20024;-78
2023/07/12 09:04:59;;;;;;;6.78;3.55;;;;;;;26.11;54.05;96456.44;6275148;22;20020;-79
2023/07/12 09:07:31;;;;;;;5.32;3.80;;;;;;;26.15;54.41;96448.63;6275448;22;20030;-78
2023/07/12 09:10:00;;;;;;;5.18;2.88;;;;;;;26.25;55.57;96465.34;6275103;22;20023;-78
2023/07/12 09:12:31;;;;;;;5.55;3.35;;;;;;;26.35;56.82;96471.63;6275409;22;20020;-77
2023/07/12 09:15:02;;;;;;;7.93;3.13;;;;;;;26.44;58.25;96475.28;6275913;22;20028;-78
2023/07/12 09:17:34;;;;;;;5.50;3.30;;;;;;;26.50;58.96;96474.94;6275479;22;20024;-78
2023/07/12 09:20:23;;;;;;;6.57;2.90;;;;;;;26.57;59.25;96466.59;6275225;22;20024;-77
2023/07/12 09:22:52;;;;;;;3.88;3.00;;;;;;;26.64;58.38;96468.91;6275705;22;20047;-77
2023/07/12 09:25:21;;;;;;;4.75;3.13;;;;;;;26.73;57.73;96471.75;6275245;22;20023;-79
2023/07/12 09:27:49;;;;;;;8.50;3.30;;;;;;;26.77;55.69;96468.19;6275840;22;20027;-78
2023/07/12 09:30:21;;;;;;;4.20;3.50;;;;;;;26.76;53.69;96465.78;6275774;22;20019;-77
2023/07/12 09:32:49;;;;;;;3.92;3.53;;;;;;;26.77;53.78;96468.19;6275718;22;20024;-78
2023/07/12 09:35:26;;;;;;;5.13;3.58;;;;;;;26.81;55.22;96463.84;6275848;22;20023;-78
2023/07/12 09:38:00;;;;;;;6.20;3.40;;;;;;;26.88;54.63;96463.50;6275593;22;20077;-78
2023/07/12 09:40:30;;;;;;;5.28;3.58;;;;;;;26.90;52.83;96461.31;6275481;22;20381;-78
2023/07/12 09:42:58;;;;;;;7.60;4.00;;;;;;;26.91;54.12;96452.97;6275788;22;20024;-78
2023/07/12 09:45:30;;;;;;;4.72;3.03;;;;;;;26.91;52.06;96450.31;6275316;22;20019;-78
2023/07/12 09:48:06;;;;;;;9.35;3.70;;;;;;;26.96;55.99;96456.69;6274969;22;20527;-78
2023/07/12 09:50:40;;;;;;;5.95;3.35;;;;;;;27.04;52.01;96453.34;6274998;22;20066;-78
2023/07/12 09:53:20;;;;;;;4.95;3.00;;;;;;;27.10;53.85;96452.97;6275170;22;20028;-78
2023/07/12 09:55:54;;;;;;;6.53;3.10;;;;;;;27.16;56.34;96436.81;6275522;22;20078;-78
2023/07/12 09:58:28;;;;;;;7.70;3.45;;;;;;;27.20;56.38;96427.13;6275350;22;20457;-78
2023/07/12 10:01:01;;;;;;;6.57;2.95;;;;;;;27.27;56.25;96422.22;6277111;22;20479;-78
2023/07/12 10:03:35;;;;;;;5.35;2.92;;;;;;;27.32;52.22;96427.50;6277253;22;20085;-78
2023/07/12 10:06:06;;;;;;;4.95;3.10;;;;;;;27.40;53.31;96426.84;6276967;22;20531;-77
2023/07/12 10:08:45;;;;;;;7.00;3.33;;;;;;;27.50;51.87;96420.50;6276936;22;20051;-79
2023/07/12 10:11:19;;;;;;;4.50;3.22;;;;;;;27.57;51.58;96426.25;6276613;22;20046;-78
2023/07/12 10:13:52;;;;;;;5.32;3.63;;;;;;;27.59;51.33;96428.63;6277368;22;20023;-78
2023/07/12 10:16:25;;;;;;;6.05;3.10;;;;;;;27.58;54.88;96424.38;6277197;22;20047;-78
2023/07/12 10:18:54;;;;;;;8.27;3.40;;;;;;;27.63;52.85;96422.41;6277279;22;20023;-78
2023/07/12 10:21:26;;;;;;;5.35;3.20;;;;;;;27.70;51.89;96419.31;6276828;22;20020;-78
2023/07/12 10:23:58;;;;;;;6.13;3.53;;;;;;;27.79;52.10;96432.84;6277434;22;20472;-78
2023/07/12 10:26:25;;;;;;;5.65;3.60;;;;;;;27.86;56.48;96436.75;6278103;22;20023;-78
2023/07/12 10:28:58;;;;;;;9.27;3.83;;;;;;;27.90;51.75;96435.06;6277947;22;20105;-78
2023/07/12 10:31:37;;;;;;;9.27;3.50;;;;;;;27.94;51.07;96432.56;6276794;22;20058;-77
2023/07/12 10:34:21;;;;;;;5.28;3.40;;;;;;;27.99;50.05;96435.16;6277112;22;20020;-78
2023/07/12 10:36:53;;;;;;;4.78;3.15;;;;;;;28.00;51.77;96427.91;6276889;22;20023;-78
2023/07/12 10:39:24;;;;;;;6.22;3.20;;;;;;;27.98;49.00;96436.25;6276639;22;20453;-78
2023/07/12 10:41:58;;;;;;;6.25;3.17;;;;;;;27.89;51.14;96430.78;6276701;22;20055;-78
2023/07/12 10:44:34;;;;;;;4.03;3.20;;;;;;;27.82;46.81;96427.69;6277278;22;20357;-78
2023/07/12 10:47:07;;;;;;;3.55;2.83;;;;;;;27.87;51.23;96429.50;6284871;22;20031;-78
2023/07/12 10:49:43;;;;;;;15.20;3.95;;;;;;;27.92;48.30;96421.34;6285839;22;20047;-79
2023/07/12 10:52:20;;;;;;;3.97;2.78;;;;;;;28.00;49.35;96434.06;6277272;22;20024;-79
2023/07/12 10:55:08;;;;;;;7.47;3.40;;;;;;;28.13;49.56;96435.16;6276786;22;20074;-78
2023/07/12 10:58:14;;;;;;;5.40;3.00;;;;;;;28.20;49.00;96432.88;6277055;22;20031;-78
2023/07/12 11:00:50;;;;;;;4.82;2.97;;;;;;;28.28;47.89;96424.13;6276856;22;20458;-78
2023/07/12 11:03:20;;;;;;;8.18;2.85;;;;;;;28.27;46.62;96422.56;6277371;22;20019;-79
2023/07/12 11:05:59;;;;;;;6.00;2.88;;;;;;;28.22;46.59;96422.63;6276994;22;20020;-78
2023/07/12 11:09:00;;;;;;;6.55;3.03;;;;;;;28.20;48.42;96416.78;6277198;22;20031;-79
2023/07/12 11:11:43;;;;;;;3.97;2.75;;;;;;;28.22;48.52;96417.28;6276167;22;20020;-78
2023/07/12 11:14:26;;;;;;;8.30;3.03;;;;;;;28.21;47.92;96423.75;6277028;22;20097;-78
2023/07/12 11:17:14;;;;;;;4.25;2.78;;;;;;;28.19;47.42;96428.59;6276893;22;20027;-78
2023/07/12 11:20:07;;;;;;;3.90;3.30;;;;;;;28.09;48.10;96415.41;6276471;22;20024;-77
2023/07/12 11:22:59;;;;;;;4.80;2.70;;;;;;;28.06;47.72;96410.66;6247731;22;20077;-78
2023/07/12 11:25:31;;;;;;;5.85;3.10;;;;;;;28.12;50.16;96420.97;6276673;22;20020;-78
2023/07/12 11:28:03;;;;;;;4.57;3.10;;;;;;;28.15;47.89;96416.88;6276672;22;20023;-79
2023/07/12 11:30:43;;;;;;;5.10;3.45;;;;;;;28.15;46.87;96419.56;6276173;22;20016;-78
2023/07/12 11:33:31;;;;;;;6.22;3.17;;;;;;;28.22;48.98;96419.94;6276224;22;20038;-78
2023/07/12 11:36:04;;;;;;;5.45;3.42;;;;;;;28.26;48.53;96414.78;6276321;22;20027;-78
2023/07/12 11:38:34;;;;;;;4.05;3.15;;;;;;;28.26;46.78;96426.31;6275851;22;20024;-78
2023/07/12 11:41:05;;;;;;;7.13;3.08;;;;;;;28.28;49.88;96424.13;6276109;22;20015;-79
2023/07/12 11:43:37;;;;;;;6.03;3.17;;;;;;;28.38;48.40;96411.59;6276178;22;20051;-78
2023/07/12 11:46:14;;;;;;;4.70;3.13;;;;;;;28.50;52.56;96414.59;6275986;22;20022;-79
2023/07/12 11:48:46;;;;;;;3.50;3.05;;;;;;;28.57;47.16;96398.84;6275919;22;20465;-79
2023/07/12 11:51:18;;;;;;;6.45;3.10;;;;;;;28.68;46.49;96413.63;6275818;22;20016;-79
2023/07/12 11:53:55;;;;;;;3.35;2.72;;;;;;;28.71;45.54;96394.25;6276131;22;20027;-78
2023/07/12 11:56:22;;;;;;;4.70;2.80;;;;;;;28.76;45.31;96390.66;6275536;22;20540;-78
2023/07/12 11:58:51;;;;;;;5.38;2.83;;;;;;;28.81;45.18;96393.22;6275462;22;20469;-78
2023/07/12 12:01:21;;;;;;;7.80;3.50;;;;;;;28.81;44.75;96392.44;6275596;22;20028;-79
2023/07/12 12:03:50;;;;;;;4.47;2.65;;;;;;;28.76;44.73;96394.13;6275795;22;20030;-78
2023/07/12 12:06:19;;;;;;;5.43;2.97;;;;;;;28.82;46.65;96396.69;6276184;22;20077;-78
2023/07/12 12:08:51;;;;;;;5.43;3.30;;;;;;;28.85;47.03;96382.66;6276169;22;20028;-79
2023/07/12 12:11:21;;;;;;;5.63;3.30;;;;;;;28.81;46.05;96381.69;6275458;22;20038;-78
2023/07/12 12:13:53;;;;;;;4.45;3.28;;;;;;;28.72;44.07;96378.94;6275633;22;20035;-78
2023/07/12 12:16:23;;;;;;;5.57;3.00;;;;;;;28.72;43.63;96374.34;6275999;22;20077;-79
2023/07/12 12:18:54;;;;;;;5.97;2.75;;;;;;;28.73;43.54;96375.97;6276203;22;20019;-79
2023/07/12 12:21:24;;;;;;;5.88;3.08;;;;;;;28.73;43.44;96370.59;6274746;22;20095;-78
2023/07/12 12:23:57;;;;;;;3.88;3.00;;;;;;;28.77;42.79;96376.13;6275948;22;20027;-79
2023/07/12 12:26:28;;;;;;;3.25;2.90;;;;;;;28.80;42.26;96364.78;6275720;22;20028;-77
2023/07/12 12:29:02;;;;;;;5.80;3.60;;;;;;;28.84;43.76;96359.59;6275951;22;20015;-79
2023/07/12 12:31:31;;;;;;;4.47;2.70;;;;;;;28.89;43.19;96372.91;6275556;22;20020;-79
2023/07/12 12:34:05;;;;;;;5.32;3.45;;;;;;;28.94;44.02;96375.47;6275852;22;20024;-79
2023/07/12 12:36:34;;;;;;;6.97;3.08;;;;;;;28.94;43.63;96353.97;6275588;22;20034;-79
2023/07/12 12:39:05;;;;;;;4.38;2.75;;;;;;;28.96;43.82;96346.41;6275310;22;20028;-79
2023/07/12 12:41:40;;;;;;;5.47;2.53;;;;;;;29.01;42.74;96354.34;6275445;22;20023;-78
2023/07/12 12:44:16;;;;;;;5.65;3.10;;;;;;;29.05;42.48;96357.22;6275578;22;20400;-79
2023/07/12 12:46:45;;;;;;;9.20;3.22;;;;;;;29.12;42.95;96365.66;6275652;22;20334;-79
2023/07/12 12:49:21;;;;;;;5.78;3.42;;;;;;;29.13;43.48;96378.78;6275670;22;20106;-79
2023/07/12 12:51:54;;;;;;;4.95;3.08;;;;;;;29.11;40.81;96370.22;6282638;22;20023;-79
2023/07/12 12:54:24;;;;;;;4.68;3.55;;;;;;;29.15;41.64;96370.44;6275654;22;20027;-79
2023/07/12 12:56:52;;;;;;;7.97;3.22;;;;;;;29.22;41.30;96353.88;6275498;22;20026;-79
2023/07/12 12:59:24;;;;;;;7.40;3.67;;;;;;;29.25;40.73;96361.31;6275562;22;20073;-79
2023/07/12 13:01:55;;;;;;;;;;;;;;;29.26;40.84;96362.91;6286772;22;20023;-77
2023/07/12 13:04:25;;;;;;;4.15;3.13;;;;;;;29.26;40.34;96355.63;6288516;22;19923;-78
2023/07/12 13:07:21;;;;;;;5.82;2.97;;;;;;;29.30;39.81;96343.16;6276516;22;20102;-78
2023/07/12 13:09:51;;;;;;;5.85;3.38;;;;;;;29.26;44.19;96344.09;6286378;22;20028;-78
2023/07/12 13:12:25;;;;;;;3.10;2.60;;;;;;;29.24;40.22;96341.72;6281657;22;20059;-78
2023/07/12 13:14:56;;;;;;;6.90;3.13;;;;;;;29.20;42.21;96330.00;6276689;22;20073;-78
2023/07/12 13:17:28;;;;;;;5.85;3.65;;;;;;;29.16;39.90;96340.56;6286603;22;20051;-77
2023/07/12 13:19:59;;;;;;;4.03;3.20;;;;;;;29.06;40.18;96330.06;6276003;22;20020;-78
2023/07/12 13:22:27;;;;;;;5.35;3.47;;;;;;;29.05;42.09;96339.19;6275658;22;20027;-78
2023/07/12 13:24:56;;;;;;;4.38;2.72;;;;;;;29.03;40.07;96319.91;6275649;22;20020;-78
2023/07/12 13:27:30;;;;;;;4.30;2.50;;;;;;;28.98;40.10;96321.97;6276504;22;20030;-78
2023/07/12 13:29:59;;;;;;;4.50;3.33;;;;;;;28.91;40.35;96317.81;6276080;22;20047;-78
2023/07/12 13:32:28;;;;;;;5.15;2.97;;;;;;;28.91;40.04;96306.28;6275947;22;20029;-77
2023/07/12 13:34:56;;;;;;;6.15;2.97;;;;;;;28.91;40.59;96296.31;6278008;22;20023;-78
2023/07/12 13:37:29;;;;;;;6.78;3.35;;;;;;;28.98;40.15;96306.63;6279131;22;20041;-79
2023/07/12 13:40:14;;;;;;;3.90;2.95;;;;;;;29.03;39.61;96309.19;6277502;22;20094;-78
2023/07/12 13:42:46;;;;;;;4.53;3.22;;;;;;;29.05;39.42;96312.34;6278152;22;20024;-79
2023/07/12 13:45:27;;;;;;;4.38;3.05;;;;;;;29.07;39.28;96320.88;6277976;22;20074;-79
2023/07/12 13:47:55;;;;;;;3.88;2.70;;;;;;;29.09;39.41;96320.63;6277309;22;20453;-79
2023/07/12 13:50:23;;;;;;;4.22;2.70;;;;;;;29.12;40.44;96320.78;6277889;22;20349;-79
2023/07/12 13:52:50;;;;;;;6.25;3.15;;;;;;;29.19;42.62;96327.59;6277980;22;20047;-79
2023/07/12 13:55:19;;;;;;;4.32;2.70;;;;;;;29.21;41.36;96336.16;6277960;22;20050;-78
2023/07/12 13:57:47;;;;;;;3.95;2.40;;;;;;;29.19;39.75;96343.72;6277578;22;20024;-79